Radar AviationWeather DUATS TFRs Wunderground Accuweather Weather.com

alt : Radar

TAFs

KDTW 181722Z 1818/1924 00000KT P6SM BKN018 OVC022
   FM190000 28004KT P6SM SCT018 OVC035
   FM190300 28004KT P6SM SCT022
   FM190900 28004KT P6SM BKN028
   FM191500 24006KT P6SM SCT035
KCLE 181510Z 1815/1918 13003KT P6SM -SN SCT025 OVC040
   FM181700 14005KT 6SM -RASN BR OVC025
   FM181900 VRB03KT 6SM -RA OVC015
     TEMPO 1819/1822 4SM -RA BR
   FM182200 35005KT P6SM OVC008
   FM190200 30006KT P6SM BKN008
   FM190700 26004KT P6SM BKN015
KFWA 181417Z 1814/1912 05006KT 1SM -DZSN BR OVC004
   FM181600 03003KT 3SM BR OVC007
   FM182000 35006KT P6SM OVC020
   FM190600 27003KT P6SM OVC015
KJXN 181140Z 1812/1912 VRB03KT 3SM -SN BR OVC015
   FM181300 VRB03KT 1 1/2SM -SN BR OVC009
   FM181500 VRB03KT 5SM BR BKN008
   FM181900 29005KT P6SM BKN015
   FM182100 28007KT P6SM BKN025
   FM190000 26004KT P6SM FEW150
KFDY 181138Z 1812/1912 06005KT 5SM BR SCT005 OVC025
     TEMPO 1812/1814 BKN005
   FM181600 01004KT P6SM -SHRA OVC008
   FM182100 32006KT P6SM OVC007
   FM190400 28005KT P6SM BKN015
KTOL 181138Z 1812/1912 05005KT 2SM -SN BR OVC004
   FM181600 02003KT 4SM -RASN OVC008
   FM181900 31005KT P6SM OVC008
   FM182300 32004KT P6SM BKN010
   FM190200 29004KT P6SM BKN020
   FM190900 26004KT P6SM SCT015

METARs

KFDY 181719Z AUTO 04005KT 3SM -RA BR BKN005 OVC023 03/02 A3019 RMK AO2 P0001 T00280017
KDUH 181715Z AUTO 00000KT 1 1/2SM -SN OVC004 02/00 A3022 RMK AO2 T00150000
KCLE 181711Z 00000KT 5SM -RA BR BKN028 OVC036 03/01 A3024 RMK AO2 P0000 T00330011
KFWA 181709Z 03005KT 1 3/4SM -SN BR OVC005 02/01 A3022 RMK AO2 P0001 T00170011
KJXN 181706Z 00000KT 6SM BR FEW006 FEW011 OVC025 01/M01 A3022 RMK AO2 SNE03 P0000 T00111006
KDTW 181703Z 00000KT 1SM R03R/P6000FT -SN BKN008 OVC017 02/M01 A3024 RMK AO2 SFC VIS 1 1/2 P0000 T00221011
KTDZ 181653Z AUTO 02004KT 2SM -SN BR OVC003 01/01 A3024 RMK AO2 SLP246 P0000 T00110006
KTOL 181652Z 00000KT 1SM -SN BR OVC005 01/M01 A3023 RMK AO2 SLP243 P0002 T00111006 RVRNO $

alt : Satellite

alt : TFRs